createdAt,value
2019-04-28T00:00:11.423Z,12.33
2019-04-28T00:05:18.923Z,10.89
2019-04-28T00:10:26.612Z,11.41
2019-04-28T00:15:34.548Z,10.49
2019-04-28T00:20:42.349Z,9.82
2019-04-28T00:25:51.465Z,10.56
2019-04-28T00:30:59.259Z,10.24
2019-04-28T00:36:07.232Z,11.39
2019-04-28T00:41:14.864Z,12.82
2019-04-28T00:46:22.737Z,11.61
2019-04-28T00:51:31.363Z,10.40
2019-04-28T00:56:39.199Z,12.17
2019-04-28T01:01:47.044Z,11.76
2019-04-28T01:06:55.028Z,11.19
2019-04-28T01:12:03.595Z,11.70
2019-04-28T01:17:11.450Z,11.81
2019-04-28T01:22:20.142Z,11.41
2019-04-28T01:27:27.749Z,10.60
2019-04-28T01:32:35.358Z,13.79
2019-04-28T01:37:43.183Z,12.61
2019-04-28T01:42:50.685Z,12.10
2019-04-28T01:48:00.479Z,10.29
2019-04-28T01:52:59.770Z,11.29
2019-04-28T01:58:09.485Z,12.65
2019-04-28T02:03:20.586Z,11.08
2019-04-28T02:08:20.169Z,12.95
2019-04-28T02:13:29.715Z,13.81
2019-04-28T02:18:37.395Z,14.71
2019-04-28T02:23:44.959Z,14.24
2019-04-28T02:28:52.697Z,13.77
2019-04-28T02:34:00.766Z,13.54
2019-04-28T02:39:10.591Z,13.31
2019-04-28T02:44:23.070Z,14.65
2019-04-28T02:49:21.465Z,12.72
2019-04-28T02:54:30.504Z,13.24
2019-04-28T02:59:41.058Z,13.06
2019-04-28T03:04:41.726Z,10.22
2019-04-28T03:09:52.100Z,11.77
2019-04-28T03:14:50.885Z,11.31
2019-04-28T03:20:00.905Z,12.92
2019-04-28T03:25:00.910Z,10.26
2019-04-28T03:30:08.243Z,11.53
2019-04-28T03:35:15.760Z,11.04
2019-04-28T03:40:23.229Z,13.65
2019-04-28T03:45:30.778Z,11.51
2019-04-28T03:50:41.208Z,10.95
2019-04-28T03:55:41.384Z,11.26
2019-04-28T04:00:40.859Z,11.87
2019-04-28T04:05:50.892Z,13.41
2019-04-28T04:10:50.248Z,12.00
2019-04-28T04:15:58.028Z,9.95
2019-04-28T04:21:05.534Z,13.97
2019-04-28T04:26:13.048Z,10.92
2019-04-28T04:31:20.556Z,9.64
2019-04-28T04:36:28.030Z,9.75
2019-04-28T04:41:35.704Z,10.81
2019-04-28T04:46:44.335Z,10.74
2019-04-28T04:51:51.909Z,11.99
2019-04-28T04:57:00.031Z,12.99
2019-04-28T05:02:19.230Z,15.03
2019-04-28T05:07:07.872Z,15.92
2019-04-28T05:12:16.048Z,13.42
2019-04-28T05:17:23.769Z,12.11
2019-04-28T05:22:31.586Z,14.63
2019-04-28T05:27:40.171Z,14.42
2019-04-28T05:32:53.699Z,14.55
2019-04-28T05:37:55.317Z,12.99
2019-04-28T05:43:02.983Z,14.37
2019-04-28T05:48:11.370Z,14.28
2019-04-28T05:53:19.312Z,15.20
2019-04-28T05:58:19.840Z,12.76
2019-04-28T06:03:27.746Z,13.36
2019-04-28T06:08:40.656Z,13.09
2019-04-28T06:13:40.070Z,12.54
2019-04-28T06:18:47.385Z,12.24
2019-04-28T06:23:55.305Z,14.52
2019-04-28T06:29:03.105Z,15.36
2019-04-28T06:34:12.619Z,12.53
2019-04-28T06:39:20.268Z,13.02
2019-04-28T06:44:28.163Z,14.24
2019-04-28T06:49:35.952Z,11.33
2019-04-28T06:54:43.708Z,12.34
2019-04-28T06:59:51.252Z,14.29
2019-04-28T07:05:02.315Z,11.65
2019-04-28T07:09:59.717Z,13.90
2019-04-28T07:15:07.687Z,12.17
2019-04-28T07:20:15.960Z,10.98
2019-04-28T07:25:23.881Z,12.12
2019-04-28T07:30:32.311Z,12.20
2019-04-28T07:35:40.164Z,12.20
2019-04-28T07:40:47.875Z,11.08
2019-04-28T07:45:55.850Z,11.22
2019-04-28T07:51:03.512Z,14.43
2019-04-28T07:56:11.319Z,12.83
2019-04-28T08:01:18.845Z,14.42
2019-04-28T08:06:27.102Z,15.40
2019-04-28T08:11:34.262Z,12.64
2019-04-28T08:16:41.953Z,14.54
2019-04-28T08:21:49.616Z,12.79
2019-04-28T08:26:57.321Z,12.62
2019-04-28T08:32:04.891Z,14.28
2019-04-28T08:37:12.470Z,14.92
2019-04-28T08:42:19.993Z,15.95
2019-04-28T08:47:27.721Z,12.98
2019-04-28T08:52:35.305Z,16.19
2019-04-28T08:57:42.997Z,16.56
2019-04-28T09:02:50.604Z,13.30
2019-04-28T09:07:58.217Z,14.76
2019-04-28T09:13:05.900Z,14.70
2019-04-28T09:18:13.826Z,15.35
2019-04-28T09:23:21.377Z,13.59
2019-04-28T09:28:29.116Z,11.50
2019-04-28T09:33:36.776Z,8.95
2019-04-28T09:38:44.498Z,10.73
2019-04-28T09:43:52.706Z,9.16
2019-04-28T09:49:00.425Z,8.92
2019-04-28T09:54:08.332Z,9.56
2019-04-28T09:59:16.124Z,8.25
2019-04-28T10:04:24.235Z,7.00
2019-04-28T10:09:33.710Z,6.73
2019-04-28T10:14:41.928Z,7.74
2019-04-28T10:19:49.566Z,7.39
2019-04-28T10:24:57.409Z,9.71
2019-04-28T10:30:05.349Z,6.98
2019-04-28T10:35:13.725Z,6.45
2019-04-28T10:40:21.971Z,5.28
2019-04-28T10:45:32.705Z,6.44
2019-04-28T10:50:30.384Z,6.77
2019-04-28T10:55:37.977Z,6.15
2019-04-28T11:00:45.637Z,8.55
2019-04-28T11:05:59.645Z,8.57
2019-04-28T11:10:57.525Z,9.03
2019-04-28T11:16:05.314Z,8.46
2019-04-28T11:21:13.035Z,8.60
2019-04-28T11:26:20.532Z,7.79
2019-04-28T11:31:28.362Z,15.54
2019-04-28T11:36:36.135Z,6.67
2019-04-28T11:41:44.149Z,5.90
2019-04-28T11:46:51.845Z,10.02
2019-04-28T11:51:59.477Z,7.51
2019-04-28T11:57:07.150Z,7.44
2019-04-28T12:02:17.313Z,6.15
2019-04-28T12:07:15.271Z,11.56
2019-04-28T12:12:23.091Z,6.44
2019-04-28T12:17:30.998Z,7.03
2019-04-28T12:22:38.582Z,9.71
2019-04-28T12:27:47.093Z,7.94
2019-04-28T12:32:55.541Z,21.48
2019-04-28T12:38:03.246Z,9.22
2019-04-28T12:43:10.907Z,6.16
2019-04-28T12:48:18.810Z,7.01
2019-04-28T12:53:26.502Z,6.99
2019-04-28T12:58:34.095Z,5.70
2019-04-28T13:03:41.833Z,5.79
2019-04-28T13:08:49.500Z,5.12
2019-04-28T13:13:57.822Z,4.79
2019-04-28T13:19:05.513Z,4.50
2019-04-28T13:24:13.088Z,4.46
2019-04-28T13:29:20.723Z,3.49
2019-04-28T13:34:28.422Z,7.17
2019-04-28T13:39:36.107Z,3.65
2019-04-28T13:44:44.536Z,3.36
2019-04-28T13:50:49.048Z,17.58
2019-04-28T13:54:56.916Z,5.57
2019-04-28T14:00:06.823Z,3.18
2019-04-28T14:05:15.585Z,4.30
2019-04-28T14:10:35.524Z,6.35
2019-04-28T14:15:34.602Z,6.95
2019-04-28T14:20:42.473Z,10.98
2019-04-28T14:26:10.432Z,7.89
2019-04-28T14:31:01.492Z,4.50
2019-04-28T14:35:59.528Z,4.57
2019-04-28T14:41:07.280Z,17.72
2019-04-28T14:46:14.960Z,4.60
2019-04-28T14:51:22.534Z,6.98
2019-04-28T14:56:30.254Z,4.20
2019-04-28T15:01:40.164Z,4.33
2019-04-28T15:06:55.472Z,5.59
2019-04-28T15:11:53.872Z,3.84
2019-04-28T15:17:01.675Z,4.37
2019-04-28T15:22:09.823Z,3.65
2019-04-28T15:27:23.878Z,3.93
2019-04-28T15:32:22.673Z,8.98
2019-04-28T15:37:30.335Z,9.02
2019-04-28T15:42:38.109Z,4.82
2019-04-28T15:47:45.615Z,3.70
2019-04-28T15:52:53.112Z,5.06
2019-04-28T15:58:00.727Z,3.38
2019-04-28T16:03:08.364Z,3.79
2019-04-28T16:08:15.862Z,4.02
2019-04-28T16:13:23.518Z,3.25
2019-04-28T16:18:30.997Z,3.54
2019-04-28T16:23:38.621Z,3.06
2019-04-28T16:28:46.251Z,4.41
2019-04-28T16:33:54.050Z,3.22
2019-04-28T16:39:02.240Z,5.48
2019-04-28T16:44:12.075Z,3.17
2019-04-28T16:49:19.672Z,5.08
2019-04-28T16:54:37.215Z,6.32
2019-04-28T16:59:35.083Z,5.21
2019-04-28T17:04:43.352Z,4.21
2019-04-28T17:09:50.976Z,3.55
2019-04-28T17:14:58.733Z,5.00
2019-04-28T17:20:06.238Z,4.59
2019-04-28T17:25:14.355Z,4.57
2019-04-28T17:30:22.099Z,3.39
2019-04-28T17:35:29.708Z,4.25
2019-04-28T17:40:37.673Z,4.76
2019-04-28T17:45:45.406Z,5.29
2019-04-28T17:50:53.022Z,5.23
2019-04-28T17:56:00.643Z,3.32
2019-04-28T18:01:08.241Z,4.92
2019-04-28T18:06:17.851Z,4.05
2019-04-28T18:11:25.671Z,4.19
2019-04-28T18:16:33.585Z,4.09
2019-04-28T18:21:41.780Z,4.00
2019-04-28T18:26:49.760Z,3.83
2019-04-28T18:31:57.368Z,3.94
2019-04-28T18:37:05.447Z,6.26
2019-04-28T18:42:14.820Z,5.71
2019-04-28T18:47:22.586Z,5.36
2019-04-28T18:52:30.650Z,5.05
2019-04-28T18:57:38.469Z,4.25
2019-04-28T19:02:46.822Z,4.89
2019-04-28T19:07:55.296Z,5.54
2019-04-28T19:13:03.240Z,5.04
2019-04-28T19:18:10.827Z,6.30
2019-04-28T19:23:19.117Z,5.80
2019-04-28T19:28:26.899Z,5.41
2019-04-28T19:33:34.665Z,4.60
2019-04-28T19:38:42.688Z,4.91
2019-04-28T19:43:50.543Z,5.43
2019-04-28T19:49:00.394Z,4.76
2019-04-28T19:59:16.877Z,4.96
2019-04-28T20:04:24.541Z,5.67
2019-04-28T20:09:32.662Z,4.77
2019-04-28T20:14:40.358Z,6.30
2019-04-28T20:24:55.753Z,5.79
2019-04-28T20:30:03.510Z,5.99
